Alex, OK

4:15 PM CST on December 20, 2014 (GMT -0600)
Oakmont | Change Station
CLOSE
Current Station
Personal Weather Station
Location: Blanchard, OK
Elevation: 1355 ft
Nearby Weather Stations

Elev 1355 ft 35.13 °N, 97.69 °W | Updated 26 seconds ago

Partly Cloudy
Partly Cloudy
42.6 °F
Feels Like 43 °F
N
3.0
Wind Variable Wind from SSE
Gusts 7.0 mph

Today
High -- | Low -- °F
--% Chance of Precip.
Yesterday
High -- | Low -- °F
Precip. -- in
7:34 AM 5:23 PM
Waning Crescent, 2% visible
Pressure 30.16 in
Visibility 10.0 miles
Clouds Scattered Clouds 1600 ft
Windchill 43 °F
Dew Point 36 °F
Humidity 79%
Rainfall -999.00 in
Snow Depth Not available.
UV 1 out of 12
Pollen 7.40 out of 12
Air Quality Not available.
Flu Activity Not available.
METAR KCHK 202155Z AUTO 20004KT 10SM SCT016 06/04 A3016 RMK AO2

More Conditions Fewer Conditions

Pressure 30.16 in
Visibility 10.0 miles
Clouds Scattered Clouds 1600 ft
Windchill 43 °F
Dew Point 36 °F
Humidity 79%
Rainfall -999.00 in
Snow Depth Not available.
UV 1 out of 12
Pollen 7.40 out of 12
Air Quality Not available.
Flu Activity Not available.
METAR KCHK 202155Z AUTO 20004KT 10SM SCT016 06/04 A3016 RMK AO2

More Conditions Fewer Conditions

10-Day Weather Forecast

Almanac

Astronomy

Dec. 20, 2014 Rise Set
Actual Time
Civil Twilight
Nautical Twilight
Astronomical Twilight
Moon
Length of Visible Light
Length of Day
Tomorrow will be .
, % of the Moon is Illuminated

Today's Extremes

State Highs State Lows

Community

WunderPhotos

Upload Photos

1,779,291 photos uploaded!

WunderBlogs® & News

Nearby

Air Quality

  Air Quality AQ Index Pollutant
Not available.

Snow Depth

Station Depth Elevation

Earthquake Activity

City Distance Mag. Time & Date
Minimum magnitude displayed is 2.5.

Coastal Water Temperatures

Place Temperature

Nearby Weather Stations